Accueil
METAR-TAF:

METAR-TAF

Aéroports :

South Naknek, Alaska, États-Unis

latitude: 58-42-08N, longitude: 157-00-09W, altitude: 49 m

Observation

Le bulletin a été fait il y a 58 minutes, à 04:56 UTC
Vent 9 kt de sud
Température 1°C
Humidité 100%
Pression 988 hPa
Visibilité: 16.1 km
Nuages fragmentés à une hauteur de 6000 ft
Nuages fragmentés à une hauteur de 12000 ft

METAR: PFWS 080456Z AUTO 19009KT 10SM BKN060 BKN120 01/01 A2917 RMK AO2 RAE0358UPB0358E00 SLP922 P0000 T00060006 FZRANO

Heure: 20:54 (05:54 UTC)


TAF: absent

Observations et prévisions météorologiques de plus de 4000 aéroports (messages METAR et TAF).

Les stations disponibles sont représentées par des disques jaunes et rouges sur la carte.

Passer la souris dessus pour voir le nom de la station.

Cliquer dessus pour voir les observations et prévisions météorologiques.

Pour changer de carte: cliquez sur les boutons verts avec une croix noire pour zoomer, sur le bouton vert avec un tiret pour effectuer un zoom arrière, ou sur les flèches vertes pour les cartes adjacentes.


METAR-TAF: